createdAt,value
2018-12-08T00:00:11.685Z,7.10
2018-12-08T00:02:39.316Z,7.10
2018-12-08T00:05:06.810Z,7.10
2018-12-08T00:07:34.322Z,7.10
2018-12-08T00:10:01.887Z,7.20
2018-12-08T00:12:29.467Z,7.20
2018-12-08T00:14:57.058Z,7.20
2018-12-08T00:17:24.570Z,7.30
2018-12-08T00:19:52.087Z,7.30
2018-12-08T00:22:19.586Z,7.30
2018-12-08T00:24:47.092Z,7.30
2018-12-08T00:27:14.594Z,7.40
2018-12-08T00:29:42.102Z,7.40
2018-12-08T00:32:09.615Z,7.50
2018-12-08T00:34:37.132Z,7.60
2018-12-08T00:37:04.658Z,7.60
2018-12-08T00:39:32.167Z,7.50
2018-12-08T00:42:00.028Z,7.60
2018-12-08T00:44:27.544Z,7.60
2018-12-08T00:46:55.052Z,7.60
2018-12-08T00:49:22.558Z,7.50
2018-12-08T00:51:50.069Z,7.50
2018-12-08T00:54:17.578Z,7.50
2018-12-08T00:56:45.082Z,7.50
2018-12-08T00:59:12.593Z,7.50
2018-12-08T01:01:40.210Z,7.50
2018-12-08T01:04:07.744Z,7.50
2018-12-08T01:06:35.280Z,7.50
2018-12-08T01:09:02.898Z,7.60
2018-12-08T01:11:30.401Z,7.60
2018-12-08T01:13:57.916Z,7.70
2018-12-08T01:16:25.425Z,7.80
2018-12-08T01:18:52.928Z,7.90
2018-12-08T01:21:20.438Z,8.00
2018-12-08T01:23:47.958Z,8.00
2018-12-08T01:26:15.462Z,8.20
2018-12-08T01:28:42.973Z,8.20
2018-12-08T01:31:10.478Z,8.30
2018-12-08T01:33:37.990Z,8.30
2018-12-08T01:36:05.577Z,8.40
2018-12-08T01:38:33.084Z,8.50
2018-12-08T01:41:00.578Z,8.50
2018-12-08T01:43:28.094Z,8.50
2018-12-08T01:45:55.614Z,8.60
2018-12-08T01:48:23.138Z,8.60
2018-12-08T01:50:50.644Z,8.60
2018-12-08T01:53:18.162Z,8.50
2018-12-08T01:55:45.670Z,8.50
2018-12-08T01:58:13.288Z,8.50
2018-12-08T02:00:40.816Z,8.50
2018-12-08T02:03:08.410Z,8.50
2018-12-08T02:05:35.978Z,8.60
2018-12-08T02:08:03.476Z,8.60
2018-12-08T02:10:30.982Z,8.70
2018-12-08T02:12:58.496Z,8.70
2018-12-08T02:15:26.011Z,8.70
2018-12-08T02:17:53.534Z,8.80
2018-12-08T02:20:21.053Z,8.70
2018-12-08T02:22:48.551Z,8.70
2018-12-08T02:25:16.080Z,8.70
2018-12-08T02:27:43.585Z,8.60
2018-12-08T02:30:11.098Z,8.60
2018-12-08T02:32:38.625Z,8.60
2018-12-08T02:35:06.147Z,8.60
2018-12-08T02:37:33.670Z,8.70
2018-12-08T02:40:01.189Z,8.70
2018-12-08T02:42:28.716Z,8.80
2018-12-08T02:44:56.241Z,8.80
2018-12-08T02:47:23.777Z,8.80
2018-12-08T02:49:51.296Z,8.80
2018-12-08T02:52:19.290Z,8.80
2018-12-08T02:54:46.805Z,8.80
2018-12-08T02:57:14.373Z,8.90
2018-12-08T02:59:41.882Z,8.90
2018-12-08T03:02:09.397Z,8.90
2018-12-08T03:04:36.989Z,9.00
2018-12-08T03:07:04.501Z,9.10
2018-12-08T03:09:32.031Z,9.00
2018-12-08T03:11:59.559Z,8.90
2018-12-08T03:14:27.083Z,8.90
2018-12-08T03:16:54.585Z,8.90
2018-12-08T03:19:22.095Z,8.90
2018-12-08T03:21:49.693Z,8.90
2018-12-08T03:24:17.202Z,8.90
2018-12-08T03:26:44.711Z,8.90
2018-12-08T03:29:12.208Z,8.90
2018-12-08T03:31:39.760Z,8.90
2018-12-08T03:34:07.274Z,8.90
2018-12-08T03:36:34.792Z,8.90
2018-12-08T03:39:02.312Z,8.90
2018-12-08T03:41:29.817Z,8.90
2018-12-08T03:43:57.327Z,8.90
2018-12-08T03:46:24.993Z,8.90
2018-12-08T03:48:52.549Z,8.90
2018-12-08T03:51:20.059Z,9.00
2018-12-08T03:53:47.643Z,9.00
2018-12-08T03:56:15.307Z,9.00
2018-12-08T03:58:42.812Z,8.90
2018-12-08T04:01:10.329Z,8.90
2018-12-08T04:03:38.091Z,8.80
2018-12-08T04:06:05.633Z,8.80
2018-12-08T04:08:33.165Z,8.70
2018-12-08T04:11:00.677Z,8.60
2018-12-08T04:13:28.196Z,8.60
2018-12-08T04:15:55.800Z,8.50
2018-12-08T04:18:23.316Z,8.50
2018-12-08T04:20:50.822Z,8.50
2018-12-08T04:23:18.333Z,8.40
2018-12-08T04:25:45.843Z,8.30
2018-12-08T04:28:13.366Z,8.20
2018-12-08T04:30:40.873Z,8.20
2018-12-08T04:33:08.455Z,8.10
2018-12-08T04:35:35.976Z,8.10
2018-12-08T04:38:03.529Z,8.10
2018-12-08T04:40:31.164Z,8.10
2018-12-08T04:42:58.674Z,8.20
2018-12-08T04:45:26.176Z,8.20
2018-12-08T04:47:53.820Z,8.20
2018-12-08T04:50:21.331Z,8.20
2018-12-08T04:52:49.555Z,8.20
2018-12-08T04:55:17.168Z,8.10
2018-12-08T04:57:44.676Z,8.10
2018-12-08T05:00:12.197Z,8.10
2018-12-08T05:02:39.705Z,8.10
2018-12-08T05:05:07.228Z,8.10
2018-12-08T05:07:34.749Z,8.10
2018-12-08T05:10:02.261Z,8.10
2018-12-08T05:12:29.783Z,8.10
2018-12-08T05:14:57.295Z,8.10
2018-12-08T05:17:24.803Z,8.10
2018-12-08T05:19:52.321Z,8.10
2018-12-08T05:22:19.913Z,8.20
2018-12-08T05:24:47.421Z,8.20
2018-12-08T05:27:14.937Z,8.20
2018-12-08T05:29:42.459Z,8.30
2018-12-08T05:32:09.979Z,8.30
2018-12-08T05:34:37.482Z,8.50
2018-12-08T05:37:05.007Z,8.60
2018-12-08T05:39:32.519Z,8.60
2018-12-08T05:42:00.034Z,8.70
2018-12-08T05:44:27.558Z,8.70
2018-12-08T05:46:55.074Z,8.80
2018-12-08T05:49:22.673Z,8.80
2018-12-08T05:51:50.188Z,8.80
2018-12-08T05:54:17.722Z,8.80
2018-12-08T05:56:45.246Z,8.90
2018-12-08T05:59:12.759Z,9.00
2018-12-08T06:01:40.271Z,9.10
2018-12-08T06:04:07.847Z,9.20
2018-12-08T06:06:35.358Z,9.30
2018-12-08T06:09:03.240Z,9.30
2018-12-08T06:11:30.752Z,9.40
2018-12-08T06:13:58.257Z,9.50
2018-12-08T06:16:25.773Z,9.50
2018-12-08T06:18:53.292Z,9.50
2018-12-08T06:21:28.597Z,9.60
2018-12-08T06:23:56.105Z,9.60
2018-12-08T06:26:23.742Z,9.60
2018-12-08T06:28:51.321Z,9.60
2018-12-08T06:31:18.849Z,9.70
2018-12-08T06:33:46.349Z,9.70
2018-12-08T06:36:13.945Z,9.80
2018-12-08T06:38:41.504Z,9.80
2018-12-08T06:41:09.115Z,9.80
2018-12-08T06:43:36.627Z,9.80
2018-12-08T06:46:04.127Z,9.80
2018-12-08T06:48:31.647Z,9.80
2018-12-08T06:50:59.146Z,9.80
2018-12-08T06:53:26.657Z,9.70
2018-12-08T06:55:54.631Z,9.70
2018-12-08T06:58:22.130Z,9.80
2018-12-08T07:00:49.632Z,9.90
2018-12-08T07:03:17.204Z,9.90
2018-12-08T07:05:44.710Z,9.90
2018-12-08T07:08:12.226Z,9.90
2018-12-08T07:10:39.738Z,9.90
2018-12-08T07:13:07.247Z,9.90
2018-12-08T07:15:34.770Z,10.00
2018-12-08T07:18:02.310Z,10.00
2018-12-08T07:20:29.818Z,10.00
2018-12-08T07:22:57.340Z,10.00
2018-12-08T07:25:24.854Z,10.00
2018-12-08T07:27:52.398Z,10.00
2018-12-08T07:30:19.988Z,10.10
2018-12-08T07:32:47.514Z,10.10
2018-12-08T07:35:15.034Z,10.20
2018-12-08T07:37:42.696Z,10.20
2018-12-08T07:40:10.356Z,10.20
2018-12-08T07:42:38.106Z,10.20
2018-12-08T07:45:06.472Z,10.20
2018-12-08T07:47:34.036Z,10.20
2018-12-08T07:50:01.648Z,10.20
2018-12-08T07:52:29.168Z,10.20
2018-12-08T07:54:56.676Z,10.20
2018-12-08T07:57:24.241Z,10.30
2018-12-08T07:59:51.827Z,10.30
2018-12-08T08:02:19.360Z,10.30
2018-12-08T08:04:46.882Z,10.40
2018-12-08T08:07:14.396Z,10.40
2018-12-08T08:09:42.017Z,10.50
2018-12-08T08:12:09.536Z,10.60
2018-12-08T08:14:37.187Z,10.50
2018-12-08T08:17:04.717Z,10.50
2018-12-08T08:19:32.220Z,10.40
2018-12-08T08:21:59.776Z,10.40
2018-12-08T08:24:27.309Z,10.40
2018-12-08T08:26:54.832Z,10.40
2018-12-08T08:29:22.361Z,10.50
2018-12-08T08:31:49.879Z,10.40
2018-12-08T08:34:17.419Z,10.40
2018-12-08T08:36:44.936Z,10.40
2018-12-08T08:39:12.563Z,10.50
2018-12-08T08:41:40.276Z,10.50
2018-12-08T08:44:07.863Z,10.50
2018-12-08T08:46:35.397Z,10.40
2018-12-08T08:49:02.909Z,10.40
2018-12-08T08:51:30.421Z,10.50
2018-12-08T08:53:57.935Z,10.50
2018-12-08T08:56:25.453Z,10.50
2018-12-08T08:58:52.979Z,10.50
2018-12-08T09:01:20.509Z,10.50
2018-12-08T09:03:48.067Z,10.60
2018-12-08T09:06:15.625Z,10.60
2018-12-08T09:08:43.157Z,10.70
2018-12-08T09:11:10.685Z,10.70
2018-12-08T09:13:38.213Z,10.70
2018-12-08T09:16:06.152Z,10.70
2018-12-08T09:18:33.674Z,10.70
2018-12-08T09:21:01.478Z,10.70
2018-12-08T09:23:29.026Z,10.70
2018-12-08T09:25:56.633Z,10.70
2018-12-08T09:28:24.154Z,10.70
2018-12-08T09:30:51.980Z,10.70
2018-12-08T09:33:19.480Z,10.60
2018-12-08T09:35:47.213Z,10.70
2018-12-08T09:38:14.733Z,10.70
2018-12-08T09:40:42.521Z,10.80
2018-12-08T09:43:10.051Z,10.80
2018-12-08T09:45:41.840Z,10.90
2018-12-08T09:48:07.532Z,10.90
2018-12-08T09:50:35.315Z,11.00
2018-12-08T09:53:08.511Z,11.00
2018-12-08T09:55:36.020Z,11.00
2018-12-08T09:58:04.440Z,11.10
2018-12-08T10:00:31.948Z,11.10
2018-12-08T10:02:59.465Z,11.10
2018-12-08T10:05:26.985Z,11.20
2018-12-08T10:07:54.498Z,11.20
2018-12-08T10:10:22.286Z,11.30
2018-12-08T10:12:49.803Z,11.30
2018-12-08T10:15:17.337Z,11.30
2018-12-08T10:17:44.846Z,11.40
2018-12-08T10:20:12.392Z,11.50
2018-12-08T10:22:39.922Z,11.50
2018-12-08T10:25:07.435Z,11.50
2018-12-08T10:27:34.960Z,11.50
2018-12-08T10:30:02.516Z,11.50
2018-12-08T10:32:30.046Z,11.40
2018-12-08T10:34:57.554Z,11.50
2018-12-08T10:37:25.077Z,11.50
2018-12-08T10:39:52.598Z,11.40
2018-12-08T10:42:20.132Z,11.40
2018-12-08T10:44:47.655Z,11.50
2018-12-08T10:47:15.150Z,11.50
2018-12-08T10:49:42.799Z,11.50
2018-12-08T10:52:10.343Z,11.50
2018-12-08T10:54:37.864Z,11.50
2018-12-08T10:57:05.369Z,11.60
2018-12-08T10:59:32.879Z,11.50
2018-12-08T11:02:01.514Z,11.60
2018-12-08T11:04:29.016Z,11.60
2018-12-08T11:06:56.529Z,11.60
2018-12-08T11:09:24.038Z,11.70
2018-12-08T11:11:51.557Z,11.60
2018-12-08T11:14:19.362Z,11.60
2018-12-08T11:16:46.858Z,11.60
2018-12-08T11:19:14.370Z,11.70
2018-12-08T11:21:41.969Z,11.70
2018-12-08T11:24:09.481Z,11.80
2018-12-08T11:26:36.990Z,11.80
2018-12-08T11:29:04.531Z,11.80
2018-12-08T11:31:32.047Z,11.70
2018-12-08T11:33:59.560Z,11.70
2018-12-08T11:36:27.073Z,11.70
2018-12-08T11:38:54.585Z,11.60
2018-12-08T11:41:22.097Z,11.60
2018-12-08T11:43:49.771Z,11.60
2018-12-08T11:46:17.370Z,11.60
2018-12-08T11:48:44.899Z,11.60
2018-12-08T11:51:12.405Z,11.70
2018-12-08T11:53:39.935Z,11.70
2018-12-08T11:56:07.454Z,11.80
2018-12-08T11:58:36.166Z,11.90
2018-12-08T12:01:03.856Z,12.00
2018-12-08T12:03:31.384Z,12.00
2018-12-08T12:05:58.908Z,12.00
2018-12-08T12:08:26.433Z,12.00
2018-12-08T12:10:53.943Z,12.10
2018-12-08T12:13:21.474Z,12.10
2018-12-08T12:15:49.001Z,12.10
2018-12-08T12:18:16.515Z,12.20
2018-12-08T12:20:44.029Z,12.30
2018-12-08T12:23:11.538Z,12.30
2018-12-08T12:25:42.095Z,12.30
2018-12-08T12:28:11.223Z,12.20
2018-12-08T12:30:38.917Z,12.20
2018-12-08T12:33:06.569Z,12.00
2018-12-08T12:35:34.083Z,12.00
2018-12-08T12:38:01.601Z,12.00
2018-12-08T12:40:29.110Z,12.00
2018-12-08T12:42:56.628Z,12.00
2018-12-08T12:45:24.358Z,12.00
2018-12-08T12:47:51.879Z,12.10
2018-12-08T12:50:19.417Z,12.10
2018-12-08T12:52:46.999Z,12.10
2018-12-08T12:55:14.566Z,12.10
2018-12-08T12:57:42.088Z,12.10
2018-12-08T13:00:11.159Z,12.10
2018-12-08T13:02:38.680Z,12.10
2018-12-08T13:05:06.644Z,12.10
2018-12-08T13:07:34.150Z,12.10
2018-12-08T13:10:01.677Z,12.10
2018-12-08T13:12:29.188Z,12.10
2018-12-08T13:14:56.722Z,12.10
2018-12-08T13:17:24.257Z,12.10
2018-12-08T13:19:51.840Z,12.10
2018-12-08T13:22:19.363Z,12.10
2018-12-08T13:24:46.869Z,12.10
2018-12-08T13:27:14.375Z,12.10
2018-12-08T13:29:41.885Z,12.00
2018-12-08T13:32:09.395Z,12.10
2018-12-08T13:34:37.093Z,12.20
2018-12-08T13:37:04.691Z,12.10
2018-12-08T13:39:32.210Z,12.20
2018-12-08T13:41:59.729Z,12.20
2018-12-08T13:44:35.868Z,12.20
2018-12-08T13:47:03.385Z,12.20
2018-12-08T13:49:30.897Z,12.20
2018-12-08T13:51:58.402Z,12.20
2018-12-08T13:54:47.224Z,12.10
2018-12-08T13:57:14.751Z,12.10
2018-12-08T13:59:46.224Z,12.20
2018-12-08T14:02:13.748Z,12.20
2018-12-08T14:04:41.286Z,12.20
2018-12-08T14:07:08.921Z,12.20
2018-12-08T14:09:36.555Z,12.20
2018-12-08T14:12:04.480Z,12.20
2018-12-08T14:14:31.986Z,12.20
2018-12-08T14:17:02.969Z,12.20
2018-12-08T14:19:30.606Z,12.20
2018-12-08T14:21:58.450Z,12.20
2018-12-08T14:24:25.966Z,12.20
2018-12-08T14:26:54.180Z,12.10
2018-12-08T14:29:21.686Z,12.00
2018-12-08T14:31:49.567Z,12.00
2018-12-08T14:34:17.357Z,12.10
2018-12-08T14:36:44.898Z,12.10
2018-12-08T14:39:12.422Z,12.00
2018-12-08T14:41:40.027Z,11.90
2018-12-08T14:44:07.630Z,11.90
2018-12-08T14:46:35.136Z,11.90
2018-12-08T14:49:03.131Z,11.90
2018-12-08T14:51:30.690Z,12.00
2018-12-08T14:54:01.018Z,11.90
2018-12-08T14:56:28.607Z,12.00
2018-12-08T14:58:56.106Z,12.00
2018-12-08T15:01:23.609Z,12.00
2018-12-08T15:03:52.046Z,12.00
2018-12-08T15:06:19.548Z,11.90
2018-12-08T15:08:47.088Z,11.90
2018-12-08T15:11:14.596Z,11.90
2018-12-08T15:13:42.120Z,11.80
2018-12-08T15:16:09.687Z,11.80
2018-12-08T15:18:37.222Z,11.90
2018-12-08T15:21:04.753Z,11.80
2018-12-08T15:23:32.272Z,11.80
2018-12-08T15:25:59.778Z,11.70
2018-12-08T15:28:27.301Z,11.50
2018-12-08T15:30:54.823Z,11.40
2018-12-08T15:33:22.341Z,11.20
2018-12-08T15:35:49.850Z,11.20
2018-12-08T15:38:17.394Z,11.10
2018-12-08T15:40:44.922Z,11.10
2018-12-08T15:43:12.426Z,11.10
2018-12-08T15:45:39.958Z,11.10
2018-12-08T15:48:07.709Z,11.10
2018-12-08T15:50:35.228Z,11.00
2018-12-08T15:53:02.775Z,10.90
2018-12-08T15:55:30.299Z,10.80
2018-12-08T15:57:57.896Z,10.80
2018-12-08T16:00:25.412Z,10.80
2018-12-08T16:02:53.026Z,10.80
2018-12-08T16:05:20.532Z,10.70
2018-12-08T16:07:48.061Z,10.60
2018-12-08T16:10:15.585Z,10.60
2018-12-08T16:12:43.121Z,10.50
2018-12-08T16:15:10.635Z,10.40
2018-12-08T16:17:38.128Z,10.30
2018-12-08T16:20:08.567Z,10.40
2018-12-08T16:22:36.130Z,10.40
2018-12-08T16:25:04.091Z,10.40
2018-12-08T16:27:31.677Z,10.40
2018-12-08T16:29:59.198Z,10.40
2018-12-08T16:32:26.709Z,10.40
2018-12-08T16:34:54.245Z,10.30
2018-12-08T16:37:21.749Z,10.30
2018-12-08T16:39:49.291Z,10.30
2018-12-08T16:42:16.795Z,10.30
2018-12-08T16:44:44.838Z,10.30
2018-12-08T16:47:12.345Z,10.40
2018-12-08T16:49:39.853Z,10.40
2018-12-08T16:52:07.383Z,10.40
2018-12-08T16:54:34.999Z,10.40
2018-12-08T16:57:02.510Z,10.40
2018-12-08T16:59:30.063Z,10.50
2018-12-08T17:01:57.652Z,10.50
2018-12-08T17:04:25.160Z,10.40
2018-12-08T17:06:52.687Z,10.40
2018-12-08T17:09:20.280Z,10.40
2018-12-08T17:11:47.792Z,10.30
2018-12-08T17:14:15.299Z,10.40
2018-12-08T17:16:42.819Z,10.50
2018-12-08T17:19:10.329Z,10.50
2018-12-08T17:21:37.829Z,10.50
2018-12-08T17:24:05.449Z,10.50
2018-12-08T17:26:32.949Z,10.50
2018-12-08T17:29:00.476Z,10.50
2018-12-08T17:31:27.993Z,10.50
2018-12-08T17:33:55.515Z,10.60
2018-12-08T17:36:23.023Z,10.70
2018-12-08T17:38:50.601Z,10.70
2018-12-08T17:41:18.101Z,10.70
2018-12-08T17:43:45.609Z,10.70
2018-12-08T17:46:13.122Z,10.70
2018-12-08T17:48:40.637Z,10.70
2018-12-08T17:51:08.135Z,10.70
2018-12-08T17:53:35.652Z,10.80
2018-12-08T17:56:03.158Z,10.90
2018-12-08T17:58:30.676Z,10.90
2018-12-08T18:01:00.399Z,10.80
2018-12-08T18:03:28.076Z,10.80
2018-12-08T18:05:55.725Z,10.70
2018-12-08T18:08:23.249Z,10.80
2018-12-08T18:10:50.762Z,10.80
2018-12-08T18:13:18.472Z,10.80
2018-12-08T18:15:46.441Z,10.90
2018-12-08T18:18:32.058Z,10.90
2018-12-08T18:21:00.444Z,10.90
2018-12-08T18:23:28.123Z,11.00
2018-12-08T18:25:55.646Z,11.00
2018-12-08T18:28:23.272Z,11.10
2018-12-08T18:30:50.778Z,11.10
2018-12-08T18:33:18.291Z,11.10
2018-12-08T18:35:45.806Z,11.10
2018-12-08T18:38:13.338Z,11.10
2018-12-08T18:40:40.848Z,11.10
2018-12-08T18:43:08.476Z,11.20
2018-12-08T18:45:35.976Z,11.30
2018-12-08T18:48:03.485Z,11.40
2018-12-08T18:50:31.053Z,11.40
2018-12-08T18:52:58.570Z,11.40
2018-12-08T18:55:26.104Z,11.50
2018-12-08T18:57:53.773Z,11.60
2018-12-08T19:00:21.507Z,11.60
2018-12-08T19:02:52.340Z,11.70
2018-12-08T19:05:20.036Z,11.60
2018-12-08T19:07:47.572Z,11.70
2018-12-08T19:10:15.135Z,11.80
2018-12-08T19:12:42.739Z,11.80
2018-12-08T19:15:10.265Z,11.80
2018-12-08T19:17:37.788Z,11.80
2018-12-08T19:20:05.967Z,11.80
2018-12-08T19:22:34.000Z,11.70
2018-12-08T19:25:01.685Z,11.70
2018-12-08T19:27:29.193Z,11.80
2018-12-08T19:29:56.789Z,11.70
2018-12-08T19:32:24.319Z,11.80
2018-12-08T19:34:51.953Z,11.90
2018-12-08T19:37:19.550Z,11.90
2018-12-08T19:39:47.050Z,11.90
2018-12-08T19:42:14.552Z,11.90
2018-12-08T19:44:42.061Z,11.90
2018-12-08T19:47:09.680Z,11.80
2018-12-08T19:49:37.366Z,11.70
2018-12-08T19:52:04.891Z,11.70
2018-12-08T19:54:32.406Z,11.70
2018-12-08T19:56:59.928Z,11.60
2018-12-08T19:59:27.551Z,11.60
2018-12-08T20:01:55.078Z,11.60
2018-12-08T20:04:22.600Z,11.50
2018-12-08T20:06:50.120Z,11.40
2018-12-08T20:09:17.632Z,11.40
2018-12-08T20:11:45.152Z,11.40
2018-12-08T20:14:12.874Z,11.50
2018-12-08T20:16:40.385Z,11.50
2018-12-08T20:19:07.890Z,11.60
2018-12-08T20:21:35.733Z,11.60
2018-12-08T20:24:03.342Z,11.60
2018-12-08T20:26:30.852Z,11.70
2018-12-08T20:28:58.366Z,11.70
2018-12-08T20:31:25.877Z,11.80
2018-12-08T20:33:53.412Z,11.80
2018-12-08T20:36:20.922Z,11.80
2018-12-08T20:38:48.432Z,11.80
2018-12-08T20:41:15.944Z,11.80
2018-12-08T20:43:43.464Z,11.80
2018-12-08T20:46:10.986Z,11.80
2018-12-08T20:48:38.519Z,11.70
2018-12-08T20:51:06.034Z,11.70
2018-12-08T20:53:33.614Z,11.70
2018-12-08T20:56:01.235Z,11.70
2018-12-08T20:58:29.413Z,11.70
2018-12-08T21:00:57.038Z,11.70
2018-12-08T21:03:24.560Z,11.70
2018-12-08T21:05:52.178Z,11.60
2018-12-08T21:08:19.723Z,11.60
2018-12-08T21:10:47.256Z,11.60
2018-12-08T21:13:14.766Z,11.60
2018-12-08T21:15:43.324Z,11.50
2018-12-08T21:18:10.862Z,11.50
2018-12-08T21:20:38.538Z,11.50
2018-12-08T21:23:07.438Z,11.60
2018-12-08T21:25:34.957Z,11.60
2018-12-08T21:28:04.349Z,11.60
2018-12-08T21:30:31.886Z,11.60
2018-12-08T21:32:59.412Z,11.60
2018-12-08T21:35:26.983Z,11.50
2018-12-08T21:37:54.514Z,11.50
2018-12-08T21:40:24.970Z,11.50
2018-12-08T21:42:52.472Z,11.50
2018-12-08T21:45:19.986Z,11.50
2018-12-08T21:47:47.493Z,11.60
2018-12-08T21:50:14.994Z,11.50
2018-12-08T21:52:42.508Z,11.50
2018-12-08T21:55:10.032Z,11.50
2018-12-08T21:57:37.560Z,11.40
2018-12-08T22:00:07.202Z,11.30
2018-12-08T22:02:34.715Z,11.30
2018-12-08T22:05:02.226Z,11.30
2018-12-08T22:07:29.732Z,11.20
2018-12-08T22:09:57.254Z,11.20
2018-12-08T22:12:24.803Z,11.20
2018-12-08T22:14:58.635Z,11.20
2018-12-08T22:17:26.626Z,11.10
2018-12-08T22:19:54.140Z,11.10
2018-12-08T22:22:21.649Z,11.00
2018-12-08T22:24:49.150Z,11.00
2018-12-08T22:27:16.666Z,10.90
2018-12-08T22:29:44.177Z,10.90
2018-12-08T22:32:11.682Z,10.80
2018-12-08T22:34:39.233Z,10.80
2018-12-08T22:37:06.915Z,10.80
2018-12-08T22:39:34.432Z,10.80
2018-12-08T22:42:02.018Z,10.70
2018-12-08T22:44:29.539Z,10.70
2018-12-08T22:46:57.081Z,10.70
2018-12-08T22:49:24.884Z,10.60
2018-12-08T22:51:52.507Z,10.60
2018-12-08T22:54:20.011Z,10.50
2018-12-08T22:56:47.625Z,10.50
2018-12-08T22:59:15.157Z,10.40
2018-12-08T23:01:42.679Z,10.40
2018-12-08T23:04:10.197Z,10.40
2018-12-08T23:06:37.783Z,10.40
2018-12-08T23:09:05.485Z,10.30
2018-12-08T23:11:33.025Z,10.40
2018-12-08T23:14:00.559Z,10.40
2018-12-08T23:16:28.276Z,10.30
2018-12-08T23:18:55.805Z,10.30
2018-12-08T23:21:23.315Z,10.30
2018-12-08T23:23:50.859Z,10.30
2018-12-08T23:26:18.399Z,10.20
2018-12-08T23:28:46.009Z,10.20
2018-12-08T23:31:13.520Z,10.20
2018-12-08T23:33:41.135Z,10.20
2018-12-08T23:36:08.753Z,10.30
2018-12-08T23:38:36.261Z,10.20
2018-12-08T23:41:03.760Z,10.20
2018-12-08T23:43:31.282Z,10.20
2018-12-08T23:45:58.817Z,10.20
2018-12-08T23:48:26.341Z,10.20
2018-12-08T23:50:53.938Z,10.20
2018-12-08T23:53:21.605Z,10.20
2018-12-08T23:55:49.235Z,10.20
2018-12-08T23:58:16.755Z,10.20
